Weather at Caen-Carpiquet Airport

Public forecast

Using degrees Celsius for public forecast. Weather courtesy of forecast.io.

Current aviation weather report (METAR) for Caen-Carpiquet Airport

Report is more than 6 hours old.

2022/11/14 15:30 (retrieved 2 years ago)

LFRK 141530Z AUTO 27014KT 9999 BKN013/// BKN019/// BKN032/// //////TCU 13/11 Q1008 TEMPO 26015G25KT 4000 SHRA

Closest aviation forecast (TAF) to Caen-Carpiquet Airport

Forecast is more than 12 hours old.

Closest forecast is Le Havre Octeville Airport, 30.2 nm (55.9 km) NE.

2023/02/22 19:06 (retrieved 1 year ago)

TAF TAF LFOH 221901Z 2219/2312 CNL